createdAt,value
2018-12-05T00:02:20.056Z,100565.78
2018-12-05T00:04:48.089Z,100564.81
2018-12-05T00:07:16.211Z,100559.88
2018-12-05T00:09:49.419Z,100556.59
2018-12-05T00:12:17.533Z,100552.98
2018-12-05T00:14:45.672Z,100553.73
2018-12-05T00:17:13.808Z,100554.97
2018-12-05T00:19:46.948Z,100557.52
2018-12-05T00:22:15.051Z,100550.25
2018-12-05T00:24:43.228Z,100548.58
2018-12-05T00:27:11.599Z,100551.98
2018-12-05T00:29:44.849Z,100551.78
2018-12-05T00:32:13.040Z,100558.91
2018-12-05T00:34:41.107Z,100568.23
2018-12-05T00:37:09.321Z,100556.50
2018-12-05T00:39:37.483Z,100551.73
2018-12-05T00:42:05.773Z,100549.42
2018-12-05T00:44:33.932Z,100566.99
2018-12-05T00:47:02.129Z,100568.87
2018-12-05T00:49:30.275Z,100571.27
2018-12-05T00:51:58.519Z,100570.06
2018-12-05T00:54:26.720Z,100567.56
2018-12-05T00:56:54.836Z,100573.80
2018-12-05T00:59:23.035Z,100570.90
2018-12-05T01:01:51.209Z,100572.40
2018-12-05T01:04:19.422Z,100569.74
2018-12-05T01:06:48.507Z,100571.47
2018-12-05T01:09:16.759Z,100569.11
2018-12-05T01:11:44.870Z,100568.01
2018-12-05T01:14:12.928Z,100567.62
2018-12-05T01:16:41.103Z,100568.62
2018-12-05T01:19:14.244Z,100572.09
2018-12-05T01:21:42.376Z,100571.75
2018-12-05T01:24:10.497Z,100571.08
2018-12-05T01:26:38.653Z,100568.29
2018-12-05T01:29:06.797Z,100562.87
2018-12-05T01:31:34.977Z,100563.11
2018-12-05T01:34:03.098Z,100558.95
2018-12-05T01:36:31.369Z,100556.74
2018-12-05T01:39:09.463Z,100561.03
2018-12-05T01:41:37.673Z,100562.93
2018-12-05T01:44:05.917Z,100558.81
2018-12-05T01:46:34.257Z,100560.55
2018-12-05T01:49:02.404Z,100569.03
2018-12-05T01:51:30.473Z,100549.42
2018-12-05T01:53:58.741Z,100571.88
2018-12-05T01:56:26.928Z,100564.64
2018-12-05T01:58:55.214Z,100567.06
2018-12-05T02:01:23.337Z,100569.80
2018-12-05T02:03:51.478Z,100571.58
2018-12-05T02:06:20.279Z,100579.03
2018-12-05T02:08:48.504Z,100581.91
2018-12-05T02:11:16.735Z,100580.61
2018-12-05T02:13:46.246Z,100575.16
2018-12-05T02:16:14.418Z,100578.17
2018-12-05T02:18:47.523Z,100568.22
2018-12-05T02:21:16.649Z,100561.66
2018-12-05T02:23:44.770Z,100562.56
2018-12-05T02:26:12.917Z,100560.02
2018-12-05T02:28:45.987Z,100553.34
2018-12-05T02:31:14.228Z,100552.35
2018-12-05T02:33:42.417Z,100550.09
2018-12-05T02:36:10.537Z,100548.19
2018-12-05T02:38:38.961Z,100545.70
2018-12-05T02:41:07.146Z,100545.16
2018-12-05T02:43:35.311Z,100538.86
2018-12-05T02:46:03.518Z,100534.48
2018-12-05T02:48:31.755Z,100528.95
2018-12-05T02:50:59.937Z,100527.91
2018-12-05T02:53:28.065Z,100521.27
2018-12-05T02:55:56.224Z,100512.73
2018-12-05T02:58:24.373Z,100517.61
2018-12-05T03:00:52.531Z,100513.31
2018-12-05T03:03:20.642Z,100522.09
2018-12-05T03:05:48.808Z,100523.47
2018-12-05T03:08:16.948Z,100519.06
2018-12-05T03:10:45.093Z,100515.28
2018-12-05T03:13:13.314Z,100522.92
2018-12-05T03:15:41.416Z,100526.84
2018-12-05T03:18:28.122Z,100517.05
2018-12-05T03:20:56.207Z,100520.83
2018-12-05T03:23:24.358Z,100520.66
2018-12-05T03:25:52.541Z,100529.50
2018-12-05T03:28:20.742Z,100528.32
2018-12-05T03:30:48.977Z,100541.47
2018-12-05T03:33:17.303Z,100535.83
2018-12-05T03:35:45.680Z,100547.56
2018-12-05T03:38:18.819Z,100546.75
2018-12-05T03:40:46.953Z,100553.04
2018-12-05T03:43:15.125Z,100560.63
2018-12-05T03:45:43.228Z,100565.75
2018-12-05T03:48:11.349Z,100569.49
2018-12-05T03:50:39.369Z,100573.91
2018-12-05T03:53:07.528Z,100577.05
2018-12-05T03:55:35.660Z,100576.13
2018-12-05T03:58:27.071Z,100576.63
2018-12-05T04:00:55.219Z,100572.52
2018-12-05T04:03:23.403Z,100574.34
2018-12-05T04:05:51.589Z,100570.16
2018-12-05T04:08:19.857Z,100575.92
2018-12-05T04:10:47.940Z,100569.06
2018-12-05T04:13:16.059Z,100570.05
2018-12-05T04:15:44.166Z,100571.22
2018-12-05T04:18:26.343Z,100571.05
2018-12-05T04:20:54.436Z,100570.36
2018-12-05T04:23:22.553Z,100570.27
2018-12-05T04:25:50.737Z,100567.44
2018-12-05T04:28:18.807Z,100570.27
2018-12-05T04:30:47.015Z,100571.16
2018-12-05T04:33:15.183Z,100578.05
2018-12-05T04:35:43.291Z,100576.30
2018-12-05T04:38:11.427Z,100575.02
2018-12-05T04:40:39.543Z,100574.58
2018-12-05T04:43:07.714Z,100567.23
2018-12-05T04:45:35.859Z,100567.31
2018-12-05T04:48:04.170Z,100569.87
2018-12-05T04:50:32.380Z,100578.02
2018-12-05T04:53:00.474Z,100567.91
2018-12-05T04:55:28.609Z,100571.05
2018-12-05T04:57:56.666Z,100571.81
2018-12-05T05:00:25.612Z,100565.09
2018-12-05T05:02:53.719Z,100568.13
2018-12-05T05:05:21.817Z,100563.72
2018-12-05T05:07:59.519Z,100556.50
2018-12-05T05:10:27.773Z,100557.06
2018-12-05T05:12:56.122Z,100558.88
2018-12-05T05:15:24.254Z,100559.97
2018-12-05T05:17:52.644Z,100557.89
2018-12-05T05:20:20.822Z,100557.56
2018-12-05T05:22:49.328Z,100560.16
2018-12-05T05:25:17.493Z,100559.64
2018-12-05T05:27:47.462Z,100558.19
2018-12-05T05:30:15.634Z,100561.08
2018-12-05T05:32:45.911Z,100560.02
2018-12-05T05:35:14.141Z,100560.15
2018-12-05T05:37:43.060Z,100560.09
2018-12-05T05:40:11.235Z,100568.13
2018-12-05T05:42:39.424Z,100570.88
2018-12-05T05:45:07.716Z,100571.42
2018-12-05T05:47:36.581Z,100567.25
2018-12-05T05:50:05.483Z,100560.06
2018-12-05T05:52:33.610Z,100558.42
2018-12-05T05:55:02.581Z,100556.42
2018-12-05T05:57:30.759Z,100554.67
2018-12-05T05:59:58.931Z,100560.07
2018-12-05T06:02:27.131Z,100569.19
2018-12-05T06:04:55.327Z,100566.48
2018-12-05T06:07:23.565Z,100558.58
2018-12-05T06:09:51.938Z,100561.06
2018-12-05T06:12:20.118Z,100566.02
2018-12-05T06:14:48.257Z,100562.54
2018-12-05T06:17:17.220Z,100557.31
2018-12-05T06:19:45.556Z,100558.69
2018-12-05T06:22:15.116Z,100567.52
2018-12-05T06:24:43.275Z,100565.73
2018-12-05T06:27:12.876Z,100566.74
2018-12-05T06:29:41.920Z,100557.21
2018-12-05T06:32:10.183Z,100558.14
2018-12-05T06:34:38.438Z,100554.69
2018-12-05T06:37:07.812Z,100565.14
2018-12-05T06:39:35.996Z,100561.16
2018-12-05T06:42:04.253Z,100566.03
2018-12-05T06:44:32.343Z,100569.48
2018-12-05T06:47:00.498Z,100572.39
2018-12-05T06:49:28.745Z,100563.75
2018-12-05T06:51:56.873Z,100567.92
2018-12-05T06:54:25.014Z,100574.22
2018-12-05T06:56:53.120Z,100577.91
2018-12-05T06:59:21.416Z,100569.16
2018-12-05T07:01:49.586Z,100568.59
2018-12-05T07:04:17.667Z,100568.67
2018-12-05T07:06:45.759Z,100565.80
2018-12-05T07:09:13.798Z,100566.98
2018-12-05T07:11:41.997Z,100574.97
2018-12-05T07:14:10.118Z,100569.53
2018-12-05T07:16:38.727Z,100570.31
2018-12-05T07:19:06.916Z,100587.45
2018-12-05T07:21:35.184Z,100599.63
2018-12-05T07:24:03.583Z,100603.49
2018-12-05T07:26:31.855Z,100604.75
2018-12-05T07:29:00.068Z,100599.23
2018-12-05T07:31:28.275Z,100604.88
2018-12-05T07:33:58.335Z,100616.67
2018-12-05T07:36:27.990Z,100612.42
2018-12-05T07:38:56.244Z,100609.58
2018-12-05T07:41:24.544Z,100618.91
2018-12-05T07:43:52.696Z,100625.72
2018-12-05T07:46:24.341Z,100631.16
2018-12-05T07:48:55.514Z,100631.35
2018-12-05T07:51:23.672Z,100626.20
2018-12-05T07:53:51.814Z,100623.36
2018-12-05T07:56:21.002Z,100615.61
2018-12-05T07:58:49.331Z,100612.70
2018-12-05T08:01:17.524Z,100617.80
2018-12-05T08:03:45.743Z,100619.10
2018-12-05T08:06:13.925Z,100613.63
2018-12-05T08:08:42.819Z,100612.83
2018-12-05T08:11:11.019Z,100616.77
2018-12-05T08:13:39.346Z,100619.41
2018-12-05T08:16:07.480Z,100610.19
2018-12-05T08:18:35.602Z,100610.52
2018-12-05T08:21:03.722Z,100604.95
2018-12-05T08:23:31.830Z,100601.97
2018-12-05T08:25:59.981Z,100604.55
2018-12-05T08:28:28.101Z,100605.75
2018-12-05T08:30:56.168Z,100602.86
2018-12-05T08:33:24.287Z,100600.40
2018-12-05T08:35:52.562Z,100601.90
2018-12-05T08:38:20.683Z,100605.63
2018-12-05T08:40:48.923Z,100605.53
2018-12-05T08:43:17.160Z,100602.66
2018-12-05T08:45:45.294Z,100598.65
2018-12-05T08:48:13.751Z,100596.64
2018-12-05T08:50:41.870Z,100595.68
2018-12-05T08:53:10.097Z,100595.64
2018-12-05T08:55:38.219Z,100595.31
2018-12-05T08:58:15.851Z,100595.57
2018-12-05T09:00:43.914Z,100591.31
2018-12-05T09:03:12.026Z,100598.68
2018-12-05T09:05:40.275Z,100597.42
2018-12-05T09:08:08.402Z,100601.27
2018-12-05T09:10:36.672Z,100599.46
2018-12-05T09:13:05.825Z,100605.68
2018-12-05T09:15:34.025Z,100605.50
2018-12-05T09:18:02.123Z,100606.77
2018-12-05T09:20:30.355Z,100606.42
2018-12-05T09:22:58.515Z,100607.75
2018-12-05T09:25:26.612Z,100609.45
2018-12-05T09:27:54.779Z,100605.24
2018-12-05T09:30:22.991Z,100599.50
2018-12-05T09:32:51.237Z,100596.66
2018-12-05T09:35:20.760Z,100593.08
2018-12-05T09:37:48.783Z,100592.38
2018-12-05T09:40:16.953Z,100587.38
2018-12-05T09:42:45.073Z,100573.52
2018-12-05T09:45:14.643Z,100569.55
2018-12-05T09:47:42.862Z,100571.63
2018-12-05T09:50:11.220Z,100562.80
2018-12-05T09:52:39.270Z,100562.50
2018-12-05T09:55:07.623Z,100564.64
2018-12-05T09:57:35.653Z,100561.59
2018-12-05T10:00:04.864Z,100564.52
2018-12-05T10:02:33.047Z,100564.38
2018-12-05T10:05:01.240Z,100561.41
2018-12-05T10:07:29.408Z,100552.94
2018-12-05T10:10:07.826Z,100547.81
2018-12-05T10:12:35.949Z,100546.30
2018-12-05T10:15:05.713Z,100547.43
2018-12-05T10:17:33.843Z,100556.13
2018-12-05T10:20:02.086Z,100549.68
2018-12-05T10:22:30.271Z,100544.25
2018-12-05T10:24:58.436Z,100541.29
2018-12-05T10:27:26.577Z,100535.32
2018-12-05T10:29:59.722Z,100536.50
2018-12-05T10:32:27.836Z,100539.75
2018-12-05T10:34:55.932Z,100532.28
2018-12-05T10:37:24.648Z,100532.71
2018-12-05T10:39:52.834Z,100525.45
2018-12-05T10:42:21.005Z,100517.30
2018-12-05T10:44:49.108Z,100514.52
2018-12-05T10:47:17.250Z,100510.78
2018-12-05T10:49:45.529Z,100504.17
2018-12-05T10:52:13.875Z,100498.91
2018-12-05T10:54:42.030Z,100489.86
2018-12-05T10:57:10.168Z,100489.66
2018-12-05T10:59:38.501Z,100481.98
2018-12-05T11:02:12.213Z,100482.67
2018-12-05T11:04:46.015Z,100474.20
2018-12-05T11:07:19.824Z,100475.16
2018-12-05T11:09:53.628Z,100466.41
2018-12-05T11:12:27.447Z,100461.49
2018-12-05T11:15:01.325Z,100460.41
2018-12-05T11:17:35.038Z,100457.85
2018-12-05T11:20:09.534Z,100451.55
2018-12-05T11:22:43.272Z,100448.98
2018-12-05T11:25:15.551Z,100445.34
2018-12-05T11:27:43.737Z,100438.73
2018-12-05T11:30:12.016Z,100434.30
2018-12-05T11:32:40.341Z,100430.16
2018-12-05T11:35:08.731Z,100427.77
2018-12-05T11:37:36.952Z,100427.30
2018-12-05T11:40:05.912Z,100422.62
2018-12-05T11:42:34.172Z,100421.66
2018-12-05T11:45:02.283Z,100412.59
2018-12-05T11:47:30.452Z,100415.95
2018-12-05T11:49:58.590Z,100416.37
2018-12-05T11:52:27.570Z,100415.73
2018-12-05T11:54:56.224Z,100410.87
2018-12-05T11:57:24.387Z,100412.41
2018-12-05T11:59:52.583Z,100411.31
2018-12-05T12:02:22.400Z,100413.57
2018-12-05T12:04:50.727Z,100414.19
2018-12-05T12:07:18.838Z,100410.22
2018-12-05T12:09:47.023Z,100406.98
2018-12-05T12:12:20.824Z,100399.28
2018-12-05T12:14:48.899Z,100407.64
2018-12-05T12:17:17.057Z,100398.35
2018-12-05T12:19:45.181Z,100397.30
2018-12-05T12:22:13.251Z,100393.33
2018-12-05T12:24:41.628Z,100387.58
2018-12-05T12:27:09.726Z,100387.06
2018-12-05T12:29:38.215Z,100384.53
2018-12-05T12:32:06.380Z,100380.22
2018-12-05T12:34:34.431Z,100374.47
2018-12-05T12:37:02.512Z,100368.80
2018-12-05T12:39:30.634Z,100367.45
2018-12-05T12:41:59.493Z,100377.64
2018-12-05T12:44:27.698Z,100369.41
2018-12-05T12:46:55.873Z,100369.56
2018-12-05T12:49:24.015Z,100365.11
2018-12-05T12:51:52.376Z,100350.66
2018-12-05T12:54:20.535Z,100351.75
2018-12-05T12:56:48.961Z,100342.33
2018-12-05T12:59:17.495Z,100342.58
2018-12-05T13:01:45.705Z,100344.00
2018-12-05T13:04:14.018Z,100330.61
2018-12-05T13:06:42.198Z,100322.45
2018-12-05T13:09:10.781Z,100323.57
2018-12-05T13:11:38.907Z,100319.53
2018-12-05T13:14:07.003Z,100329.38
2018-12-05T13:16:35.737Z,100325.48
2018-12-05T13:19:03.983Z,100323.94
2018-12-05T13:21:32.962Z,100312.91
2018-12-05T13:24:01.124Z,100305.31
2018-12-05T13:26:29.297Z,100305.97
2018-12-05T13:28:57.471Z,100301.87
2018-12-05T13:31:27.378Z,100290.99
2018-12-05T13:33:55.503Z,100279.30
2018-12-05T13:36:23.635Z,100275.38
2018-12-05T13:38:51.806Z,100271.66
2018-12-05T13:41:19.988Z,100267.93
2018-12-05T13:43:48.146Z,100266.55
2018-12-05T13:46:16.420Z,100259.67
2018-12-05T13:48:45.349Z,100262.81
2018-12-05T13:51:13.584Z,100272.43
2018-12-05T13:53:41.825Z,100276.44
2018-12-05T13:56:09.963Z,100265.77
2018-12-05T13:58:38.314Z,100261.11
2018-12-05T14:01:06.525Z,100253.48
2018-12-05T14:03:34.610Z,100246.37
2018-12-05T14:06:02.962Z,100251.56
2018-12-05T14:08:31.151Z,100252.14
2018-12-05T14:10:59.258Z,100257.26
2018-12-05T14:13:27.454Z,100250.98
2018-12-05T14:15:55.570Z,100252.31
2018-12-05T14:18:28.942Z,100255.13
2018-12-05T14:20:57.147Z,100256.39
2018-12-05T14:23:25.266Z,100254.91
2018-12-05T14:25:53.458Z,100251.33
2018-12-05T14:28:21.824Z,100239.45
2018-12-05T14:30:49.924Z,100233.88
2018-12-05T14:33:18.227Z,100247.08
2018-12-05T14:35:46.523Z,100252.71
2018-12-05T14:38:14.745Z,100248.19
2018-12-05T14:40:42.923Z,100251.61
2018-12-05T14:43:11.053Z,100263.02
2018-12-05T14:45:39.180Z,100249.59
2018-12-05T14:48:07.347Z,100246.63
2018-12-05T14:50:35.624Z,100244.59
2018-12-05T14:53:03.860Z,100244.77
2018-12-05T14:55:32.048Z,100242.89
2018-12-05T14:58:02.237Z,100239.86
2018-12-05T15:00:30.927Z,100240.30
2018-12-05T15:02:59.168Z,100243.38
2018-12-05T15:05:27.371Z,100236.45
2018-12-05T15:07:55.501Z,100230.48
2018-12-05T15:10:23.639Z,100226.09
2018-12-05T15:12:51.785Z,100216.80
2018-12-05T15:15:19.965Z,100220.22
2018-12-05T15:17:48.124Z,100217.96
2018-12-05T15:20:16.293Z,100212.20
2018-12-05T15:22:45.654Z,100204.34
2018-12-05T15:25:13.808Z,100208.47
2018-12-05T15:27:41.923Z,100194.67
2018-12-05T15:30:10.294Z,100189.49
2018-12-05T15:32:38.434Z,100182.24
2018-12-05T15:35:06.831Z,100190.30
2018-12-05T15:37:34.974Z,100193.30
2018-12-05T15:40:03.423Z,100192.42
2018-12-05T15:42:31.950Z,100189.33
2018-12-05T15:45:00.118Z,100184.02
2018-12-05T15:47:31.333Z,100184.77
2018-12-05T15:49:59.501Z,100172.31
2018-12-05T15:52:29.585Z,100168.30
2018-12-05T15:54:57.786Z,100173.75
2018-12-05T15:57:25.991Z,100175.97
2018-12-05T15:59:54.174Z,100166.51
2018-12-05T16:02:22.346Z,100165.99
2018-12-05T16:04:50.549Z,100159.32
2018-12-05T16:07:19.775Z,100162.81
2018-12-05T16:09:47.861Z,100159.51
2018-12-05T16:12:16.035Z,100157.69
2018-12-05T16:14:44.174Z,100158.85
2018-12-05T16:17:12.380Z,100155.73
2018-12-05T16:19:40.556Z,100160.23
2018-12-05T16:22:08.888Z,100161.30
2018-12-05T16:24:36.998Z,100162.47
2018-12-05T16:27:05.263Z,100155.70
2018-12-05T16:29:33.465Z,100103.81
2018-12-05T16:32:01.627Z,100162.11
2018-12-05T16:34:29.865Z,100153.94
2018-12-05T16:36:58.017Z,100154.30
2018-12-05T16:39:26.371Z,100152.50
2018-12-05T16:41:54.513Z,100145.45
2018-12-05T16:44:22.627Z,100141.23
2018-12-05T16:46:51.087Z,100143.92
2018-12-05T16:49:19.467Z,100146.36
2018-12-05T16:51:47.648Z,100102.70
2018-12-05T16:54:16.380Z,100143.92
2018-12-05T16:56:44.549Z,100136.63
2018-12-05T16:59:14.511Z,100137.88
2018-12-05T17:01:42.734Z,100143.83
2018-12-05T17:04:10.978Z,100143.12
2018-12-05T17:06:39.280Z,100137.20
2018-12-05T17:09:08.013Z,100138.29
2018-12-05T17:11:36.182Z,100133.46
2018-12-05T17:14:04.566Z,100119.97
2018-12-05T17:16:32.747Z,100115.83
2018-12-05T17:19:01.125Z,100112.52
2018-12-05T17:21:29.316Z,100110.02
2018-12-05T17:23:57.467Z,100110.41
2018-12-05T17:26:25.580Z,100103.76
2018-12-05T17:28:53.773Z,100099.44
2018-12-05T17:31:22.008Z,100101.89
2018-12-05T17:33:50.096Z,100098.59
2018-12-05T17:36:18.365Z,100099.67
2018-12-05T17:38:57.148Z,100096.54
2018-12-05T17:41:26.371Z,100088.39
2018-12-05T17:43:54.579Z,100090.32
2018-12-05T17:46:22.720Z,100083.84
2018-12-05T17:48:51.085Z,100086.39
2018-12-05T17:51:19.349Z,100078.78
2018-12-05T17:53:47.645Z,100077.95
2018-12-05T17:56:15.797Z,100074.62
2018-12-05T17:58:44.754Z,100075.95
2018-12-05T18:01:12.972Z,100080.67
2018-12-05T18:03:41.962Z,100079.66
2018-12-05T18:06:10.247Z,100080.11
2018-12-05T18:08:38.540Z,100072.22
2018-12-05T18:11:06.727Z,100066.94
2018-12-05T18:13:34.841Z,100058.50
2018-12-05T18:16:03.031Z,100048.28
2018-12-05T18:18:31.406Z,100040.22
2018-12-05T18:21:00.442Z,100041.91
2018-12-05T18:23:29.628Z,100031.88
2018-12-05T18:25:57.859Z,99976.66
2018-12-05T18:28:26.156Z,100015.49
2018-12-05T18:30:54.407Z,100011.08
2018-12-05T18:33:22.512Z,100013.83
2018-12-05T18:35:50.632Z,100015.38
2018-12-05T18:38:19.032Z,100010.88
2018-12-05T18:40:47.163Z,100003.06
2018-12-05T18:43:15.415Z,99997.62
2018-12-05T18:45:43.755Z,99952.91
2018-12-05T18:48:12.135Z,99993.41
2018-12-05T18:50:40.200Z,99994.16
2018-12-05T18:53:08.291Z,99991.80
2018-12-05T18:55:36.469Z,99987.34
2018-12-05T18:58:05.627Z,99991.38
2018-12-05T19:00:33.801Z,99948.38
2018-12-05T19:03:02.022Z,99988.55
2018-12-05T19:05:30.157Z,99983.13
2018-12-05T19:08:00.058Z,99977.38
2018-12-05T19:10:28.318Z,99963.77
2018-12-05T19:13:02.206Z,99969.96
2018-12-05T19:15:30.520Z,99966.37
2018-12-05T19:17:58.906Z,99972.80
2018-12-05T19:20:27.088Z,99971.77
2018-12-05T19:22:55.152Z,99979.06
2018-12-05T19:25:23.385Z,99975.66
2018-12-05T19:27:52.379Z,99979.16
2018-12-05T19:30:20.618Z,99977.63
2018-12-05T19:32:49.097Z,99975.23
2018-12-05T19:35:17.352Z,99967.73
2018-12-05T19:37:45.497Z,99954.67
2018-12-05T19:40:13.762Z,99949.59
2018-12-05T19:42:41.962Z,99945.65
2018-12-05T19:45:10.382Z,99942.30
2018-12-05T19:47:44.479Z,99939.16
2018-12-05T19:50:16.014Z,99942.34
2018-12-05T19:52:47.557Z,99930.80
2018-12-05T19:55:15.774Z,99940.37
2018-12-05T19:57:47.466Z,99929.50
2018-12-05T20:00:21.129Z,99931.87
2018-12-05T20:02:57.209Z,99927.02
2018-12-05T20:05:31.398Z,99929.97
2018-12-05T20:08:02.900Z,99923.99
2018-12-05T20:10:34.793Z,99922.52
2018-12-05T20:13:10.201Z,99918.50
2018-12-05T20:15:41.781Z,99910.25
2018-12-05T20:18:15.975Z,99910.89
2018-12-05T20:20:47.768Z,99901.77
2018-12-05T20:23:22.806Z,99895.70
2018-12-05T20:25:54.795Z,99893.24
2018-12-05T20:28:26.822Z,99894.95
2018-12-05T20:31:00.870Z,99902.61
2018-12-05T20:33:47.674Z,99911.70
2018-12-05T20:36:16.851Z,99912.70
2018-12-05T20:38:45.057Z,99901.56
2018-12-05T20:41:13.292Z,99889.50
2018-12-05T20:43:41.600Z,99879.87
2018-12-05T20:46:09.940Z,99880.53
2018-12-05T20:48:38.363Z,99881.34
2018-12-05T20:51:06.518Z,99882.72
2018-12-05T20:53:35.460Z,99882.63
2018-12-05T20:56:03.760Z,99887.23
2018-12-05T20:58:31.998Z,99890.31
2018-12-05T21:01:03.633Z,99879.89
2018-12-05T21:03:38.141Z,99869.16
2018-12-05T21:06:11.877Z,99857.91
2018-12-05T21:08:43.909Z,99851.97
2018-12-05T21:11:18.296Z,99854.52
2018-12-05T21:13:50.246Z,99854.67
2018-12-05T21:16:24.608Z,99846.59
2018-12-05T21:18:58.852Z,99846.52
2018-12-05T21:21:34.676Z,99849.86
2018-12-05T21:24:04.232Z,99851.53
2018-12-05T21:26:36.218Z,99843.11
2018-12-05T21:29:08.275Z,99828.81
2018-12-05T21:31:39.982Z,99840.47
2018-12-05T21:34:14.448Z,99831.73
2018-12-05T21:36:48.608Z,99822.60
2018-12-05T21:39:19.877Z,99814.25
2018-12-05T21:41:51.108Z,99819.19
2018-12-05T21:44:24.008Z,99805.43
2018-12-05T21:46:59.174Z,99806.70
2018-12-05T21:49:31.105Z,99819.28
2018-12-05T21:52:03.054Z,99825.50
2018-12-05T21:54:38.685Z,99831.00
2018-12-05T21:57:10.439Z,99821.86
2018-12-05T21:59:44.994Z,99813.91
2018-12-05T22:02:16.942Z,99818.05
2018-12-05T22:04:52.426Z,99823.66
2018-12-05T22:07:26.308Z,99826.09
2018-12-05T22:09:58.154Z,99824.94
2018-12-05T22:12:32.725Z,99824.29
2018-12-05T22:15:05.313Z,99821.31
2018-12-05T22:17:36.828Z,99830.56
2018-12-05T22:20:09.376Z,99820.80
2018-12-05T22:22:41.825Z,99820.25
2018-12-05T22:25:15.883Z,99814.04
2018-12-05T22:27:47.556Z,99814.45
2018-12-05T22:30:21.634Z,99815.81
2018-12-05T22:32:53.455Z,99820.45
2018-12-05T22:42:57.531Z,99812.80
2018-12-05T22:45:31.777Z,99801.28
2018-12-05T22:48:04.073Z,99793.73
2018-12-05T22:50:35.601Z,99791.41
2018-12-05T22:53:05.930Z,99787.44
2018-12-05T22:55:37.985Z,99785.16
2018-12-05T22:58:13.392Z,99790.39
2018-12-05T23:00:50.282Z,99790.72
2018-12-05T23:03:22.237Z,99791.39
2018-12-05T23:05:55.919Z,99791.55
2018-12-05T23:08:30.183Z,99780.06
2018-12-05T23:11:01.973Z,99764.68
2018-12-05T23:13:33.154Z,99766.08
2018-12-05T23:16:04.576Z,99762.62
2018-12-05T23:18:36.645Z,99754.97
2018-12-05T23:21:08.670Z,99751.34
2018-12-05T23:23:41.219Z,99760.62
2018-12-05T23:26:12.990Z,99767.95
2018-12-05T23:28:44.719Z,99765.78
2018-12-05T23:31:19.106Z,99767.22
2018-12-05T23:33:52.691Z,99765.30
2018-12-05T23:36:27.517Z,99751.85
2018-12-05T23:38:58.866Z,99744.02
2018-12-05T23:41:30.869Z,99749.80
2018-12-05T23:44:03.557Z,99746.58
2018-12-05T23:46:38.282Z,99736.51
2018-12-05T23:49:09.879Z,99733.55
2018-12-05T23:51:41.707Z,99747.94
2018-12-05T23:54:13.778Z,99739.52
2018-12-05T23:56:45.234Z,99737.72
2018-12-05T23:59:19.022Z,99725.03
